Emery, SD (57332)

1:04 PM CDT on August 29, 2016 (GMT -0500)
Petree Farm - 2mi West Salem SD | | Change Station

Elev 1490 ft 43.73 °N, 97.43 °W | Updated 3 minutes ago

Clear
Clear
91.4 °F
Feels Like 101 °F
N
6.8
Wind Variable Wind from SSE

Today
High -- | Low -- °F
--% Chance of Precip.
Yesterday
High -- | Low -- °F
Precip. -- in
Pressure 30.12 in
Visibility 10.0 miles
Clouds Clear
Heat Index 101 °F
Dew Point 74 °F
Humidity 57%
Rainfall 0.00 in
Snow Depth Not available.
6:51 AM 8:10 PM
Waning Crescent, 7% visible
METAR KMHE 291753Z AUTO 16008KT 10SM CLR 31/21 A3015 RMK AO2 SLP198 T03110211 10311 20200 50006
Pressure 30.12 in
Visibility 10.0 miles
Clouds Clear
Heat Index 101 °F
Dew Point 74 °F
Humidity 57%
Rainfall 0.00 in
Snow Depth Not available.
6:51 AM 8:10 PM
Waning Crescent, 7% visible
METAR KMHE 291753Z AUTO 16008KT 10SM CLR 31/21 A3015 RMK AO2 SLP198 T03110211 10311 20200 50006

10-Day Weather Forecast

Almanac

Astronomy

Aug. 29, 2016 Rise Set
Actual Time
Civil Twilight
Nautical Twilight
Astronomical Twilight
Moon
Length of Visible Light
Length of Day
Tomorrow will be .
, % of the Moon is Illuminated

Today's Extremes

State Highs State Lows

Community

WunderPhotos

Upload Photos

1,935,685 photos uploaded!

WunderBlog® & News

Nearby

Air Quality

  Air Quality AQ Index Pollutant
Not available.

Snow Depth

Station Depth Elevation

Earthquake Activity

City Distance Mag. Time & Date
Minimum magnitude displayed is 2.5.

Coastal Water Temperatures

Place Temperature

Stations

Nearby Weather Stations

Station Location Temp. Windchill Dew Point Humidity Wind Precip. Elev Updated Type
                   

Watches & Warnings

There are currently no watches in effect.